Taraghin, Libya
Current Conditions -  °F | °C
As of 5:00 PM on Saturday 25 Oct 2014 (Local Time) from DAUZ Reporting Station
Clear Clear  
Wind Chill: 81°   Ceiling: Unl
Heat Index: 81°   Visibility: 6mi
Dew Point: 34°   Wind: 0mph
Humidity: 18%   Direction: NA
Pressure: 30.03"   Gusts: NA
Location:  25.98°N, 14.43°E
Report Text: DAUZ 251400Z 00000KT CAVOK 27/01 Q1017
Loading
Personal Weather Stations






























Interactive Weather Map
Tropical Storm Tracking
New forecast layout! Learn more

10-Day Weather Forecast

Advertisements
Track Severe Weather on mobile